sensor_id;sensor_type;location;lat;lon;timestamp;temperature;humidity
2647;DHT22;1333;50.958;6.770;2023-02-28T00:00:46;0.40;99.90
2647;DHT22;1333;50.958;6.770;2023-02-28T00:03:12;0.40;99.90
2647;DHT22;1333;50.958;6.770;2023-02-28T00:05:38;0.30;99.90
2647;DHT22;1333;50.958;6.770;2023-02-28T00:08:04;0.30;99.90
2647;DHT22;1333;50.958;6.770;2023-02-28T00:10:31;0.30;99.90
2647;DHT22;1333;50.958;6.770;2023-02-28T00:13:23;0.30;99.90
2647;DHT22;1333;50.958;6.770;2023-02-28T00:15:59;0.20;99.90
2647;DHT22;1333;50.958;6.770;2023-02-28T00:18:24;0.20;99.90
2647;DHT22;1333;50.958;6.770;2023-02-28T00:20:50;0.20;99.90
2647;DHT22;1333;50.958;6.770;2023-02-28T00:23:16;0.20;99.90
2647;DHT22;1333;50.958;6.770;2023-02-28T00:25:49;0.10;99.90
2647;DHT22;1333;50.958;6.770;2023-02-28T00:28:15;0.10;99.90
2647;DHT22;1333;50.958;6.770;2023-02-28T00:30:40;0.10;99.90
2647;DHT22;1333;50.958;6.770;2023-02-28T00:33:06;0.00;99.90
2647;DHT22;1333;50.958;6.770;2023-02-28T00:35:31;0.10;99.90
2647;DHT22;1333;50.958;6.770;2023-02-28T00:37:57;0.10;99.90
2647;DHT22;1333;50.958;6.770;2023-02-28T00:40:22;0.00;99.90
2647;DHT22;1333;50.958;6.770;2023-02-28T00:42:48;0.00;99.90
2647;DHT22;1333;50.958;6.770;2023-02-28T00:45:13;-0.10;99.90
2647;DHT22;1333;50.958;6.770;2023-02-28T00:47:39;-0.10;99.90
2647;DHT22;1333;50.958;6.770;2023-02-28T00:50:05;-0.10;99.90
2647;DHT22;1333;50.958;6.770;2023-02-28T00:52:31;-0.10;99.90
2647;DHT22;1333;50.958;6.770;2023-02-28T00:54:56;-0.20;99.90
2647;DHT22;1333;50.958;6.770;2023-02-28T00:57:22;-0.20;99.90
2647;DHT22;1333;50.958;6.770;2023-02-28T00:59:48;-0.30;99.90
2647;DHT22;1333;50.958;6.770;2023-02-28T01:02:14;-0.30;99.90
2647;DHT22;1333;50.958;6.770;2023-02-28T01:04:39;-0.30;99.90
2647;DHT22;1333;50.958;6.770;2023-02-28T01:07:05;-0.30;99.90
2647;DHT22;1333;50.958;6.770;2023-02-28T01:09:30;-0.40;99.90
2647;DHT22;1333;50.958;6.770;2023-02-28T01:11:56;-0.40;99.90
2647;DHT22;1333;50.958;6.770;2023-02-28T01:14:22;-0.40;99.90
2647;DHT22;1333;50.958;6.770;2023-02-28T01:16:47;-0.50;99.90
2647;DHT22;1333;50.958;6.770;2023-02-28T01:19:13;-0.50;99.90
2647;DHT22;1333;50.958;6.770;2023-02-28T01:21:38;-0.50;99.90
2647;DHT22;1333;50.958;6.770;2023-02-28T01:24:04;-0.60;99.90
2647;DHT22;1333;50.958;6.770;2023-02-28T01:26:31;-0.60;99.90
2647;DHT22;1333;50.958;6.770;2023-02-28T01:28:56;-0.60;99.90
2647;DHT22;1333;50.958;6.770;2023-02-28T01:31:22;-0.60;99.90
2647;DHT22;1333;50.958;6.770;2023-02-28T01:33:49;-0.60;99.90
2647;DHT22;1333;50.958;6.770;2023-02-28T01:36:20;-0.60;99.90
2647;DHT22;1333;50.958;6.770;2023-02-28T01:38:47;-0.60;99.90
2647;DHT22;1333;50.958;6.770;2023-02-28T01:41:23;-0.60;99.90
2647;DHT22;1333;50.958;6.770;2023-02-28T01:46:14;-0.60;99.90
2647;DHT22;1333;50.958;6.770;2023-02-28T01:48:46;-0.60;99.90
2647;DHT22;1333;50.958;6.770;2023-02-28T01:51:18;-0.60;99.90
2647;DHT22;1333;50.958;6.770;2023-02-28T01:53:54;-0.60;99.90
2647;DHT22;1333;50.958;6.770;2023-02-28T01:56:26;-0.50;99.90
2647;DHT22;1333;50.958;6.770;2023-02-28T01:58:54;-0.60;99.90
2647;DHT22;1333;50.958;6.770;2023-02-28T02:01:21;-0.50;99.90
2647;DHT22;1333;50.958;6.770;2023-02-28T02:03:49;-0.50;99.90
2647;DHT22;1333;50.958;6.770;2023-02-28T02:06:21;-0.40;99.90
2647;DHT22;1333;50.958;6.770;2023-02-28T02:08:50;-0.30;99.90
2647;DHT22;1333;50.958;6.770;2023-02-28T02:11:18;-0.30;99.90
2647;DHT22;1333;50.958;6.770;2023-02-28T02:19:26;-0.10;99.90
2647;DHT22;1333;50.958;6.770;2023-02-28T02:22:12;-0.20;99.90
2647;DHT22;1333;50.958;6.770;2023-02-28T02:28:40;-0.10;99.90
2647;DHT22;1333;50.958;6.770;2023-02-28T02:41:59;-0.20;99.90
2647;DHT22;1333;50.958;6.770;2023-02-28T02:44:55;-0.30;99.90
2647;DHT22;1333;50.958;6.770;2023-02-28T02:47:24;-0.40;99.90
2647;DHT22;1333;50.958;6.770;2023-02-28T02:49:53;-0.40;99.90
2647;DHT22;1333;50.958;6.770;2023-02-28T02:52:23;-0.40;99.90
2647;DHT22;1333;50.958;6.770;2023-02-28T02:54:52;-0.50;99.90
2647;DHT22;1333;50.958;6.770;2023-02-28T02:57:30;-0.50;99.90
2647;DHT22;1333;50.958;6.770;2023-02-28T02:59:58;-0.50;99.90
2647;DHT22;1333;50.958;6.770;2023-02-28T03:02:24;-0.50;99.90
2647;DHT22;1333;50.958;6.770;2023-02-28T03:04:58;-0.50;99.90
2647;DHT22;1333;50.958;6.770;2023-02-28T03:07:28;-0.60;99.90
2647;DHT22;1333;50.958;6.770;2023-02-28T03:09:55;-0.60;99.90
2647;DHT22;1333;50.958;6.770;2023-02-28T03:12:24;-0.60;99.90
2647;DHT22;1333;50.958;6.770;2023-02-28T03:15:01;-0.70;99.90
2647;DHT22;1333;50.958;6.770;2023-02-28T03:17:42;-0.70;99.90
2647;DHT22;1333;50.958;6.770;2023-02-28T03:22:57;-0.70;99.90
2647;DHT22;1333;50.958;6.770;2023-02-28T03:25:38;-0.80;99.90
2647;DHT22;1333;50.958;6.770;2023-02-28T03:31:26;-0.80;99.90
2647;DHT22;1333;50.958;6.770;2023-02-28T03:34:12;-0.80;99.90
2647;DHT22;1333;50.958;6.770;2023-02-28T03:36:53;-0.90;99.90
2647;DHT22;1333;50.958;6.770;2023-02-28T03:39:26;-0.90;99.90
2647;DHT22;1333;50.958;6.770;2023-02-28T03:42:00;-1.00;99.90
2647;DHT22;1333;50.958;6.770;2023-02-28T03:44:38;-1.00;99.90
2647;DHT22;1333;50.958;6.770;2023-02-28T03:47:13;-1.10;99.90
2647;DHT22;1333;50.958;6.770;2023-02-28T03:50:05;-1.10;99.90
2647;DHT22;1333;50.958;6.770;2023-02-28T03:52:32;-1.10;99.90
2647;DHT22;1333;50.958;6.770;2023-02-28T03:55:03;-1.10;99.90
2647;DHT22;1333;50.958;6.770;2023-02-28T04:00:10;-1.20;99.90
2647;DHT22;1333;50.958;6.770;2023-02-28T04:02:37;-1.20;99.90
2647;DHT22;1333;50.958;6.770;2023-02-28T04:05:03;-1.20;99.90
2647;DHT22;1333;50.958;6.770;2023-02-28T04:07:29;-1.20;99.90
2647;DHT22;1333;50.958;6.770;2023-02-28T04:09:55;-1.20;99.90
2647;DHT22;1333;50.958;6.770;2023-02-28T04:12:21;-1.20;99.90
2647;DHT22;1333;50.958;6.770;2023-02-28T04:14:48;-1.20;99.90
2647;DHT22;1333;50.958;6.770;2023-02-28T04:17:14;-1.30;99.90
2647;DHT22;1333;50.958;6.770;2023-02-28T04:19:40;-1.30;99.90
2647;DHT22;1333;50.958;6.770;2023-02-28T04:22:05;-1.30;99.90
2647;DHT22;1333;50.958;6.770;2023-02-28T04:24:31;-1.30;99.90
2647;DHT22;1333;50.958;6.770;2023-02-28T04:26:57;-1.40;99.90
2647;DHT22;1333;50.958;6.770;2023-02-28T04:29:25;-1.40;99.90
2647;DHT22;1333;50.958;6.770;2023-02-28T04:31:52;-1.40;99.90
2647;DHT22;1333;50.958;6.770;2023-02-28T04:34:28;-1.40;99.90
2647;DHT22;1333;50.958;6.770;2023-02-28T04:36:54;-1.50;99.90
2647;DHT22;1333;50.958;6.770;2023-02-28T04:39:21;-1.50;99.90
2647;DHT22;1333;50.958;6.770;2023-02-28T04:41:47;-1.50;99.90
2647;DHT22;1333;50.958;6.770;2023-02-28T04:44:13;-1.50;99.90
2647;DHT22;1333;50.958;6.770;2023-02-28T04:46:39;-1.50;99.90
2647;DHT22;1333;50.958;6.770;2023-02-28T04:49:04;-1.60;99.90
2647;DHT22;1333;50.958;6.770;2023-02-28T04:51:30;-1.60;99.90
2647;DHT22;1333;50.958;6.770;2023-02-28T04:53:55;-1.70;99.90
2647;DHT22;1333;50.958;6.770;2023-02-28T04:56:21;-1.70;99.90
2647;DHT22;1333;50.958;6.770;2023-02-28T04:58:47;-1.70;99.90
2647;DHT22;1333;50.958;6.770;2023-02-28T05:01:19;-1.70;99.90
2647;DHT22;1333;50.958;6.770;2023-02-28T05:03:45;-1.80;99.90
2647;DHT22;1333;50.958;6.770;2023-02-28T05:06:12;-1.80;99.90
2647;DHT22;1333;50.958;6.770;2023-02-28T05:08:38;-1.80;99.90
2647;DHT22;1333;50.958;6.770;2023-02-28T05:11:05;-1.90;99.90
2647;DHT22;1333;50.958;6.770;2023-02-28T05:13:31;-1.90;99.90
2647;DHT22;1333;50.958;6.770;2023-02-28T05:15:56;-1.90;99.90
2647;DHT22;1333;50.958;6.770;2023-02-28T05:18:22;-1.90;99.90
2647;DHT22;1333;50.958;6.770;2023-02-28T05:20:48;-1.90;99.90
2647;DHT22;1333;50.958;6.770;2023-02-28T05:23:14;-1.90;99.90
2647;DHT22;1333;50.958;6.770;2023-02-28T05:25:40;-2.00;99.90
2647;DHT22;1333;50.958;6.770;2023-02-28T05:28:06;-2.00;99.90
2647;DHT22;1333;50.958;6.770;2023-02-28T05:30:32;-2.00;99.90
2647;DHT22;1333;50.958;6.770;2023-02-28T05:32:58;-2.00;99.90
2647;DHT22;1333;50.958;6.770;2023-02-28T05:35:24;-2.00;99.90
2647;DHT22;1333;50.958;6.770;2023-02-28T05:37:50;-2.00;99.90
2647;DHT22;1333;50.958;6.770;2023-02-28T05:40:16;-2.00;99.90
2647;DHT22;1333;50.958;6.770;2023-02-28T05:42:41;-2.00;99.90
2647;DHT22;1333;50.958;6.770;2023-02-28T05:45:08;-2.10;99.90
2647;DHT22;1333;50.958;6.770;2023-02-28T05:47:34;-2.10;99.90
2647;DHT22;1333;50.958;6.770;2023-02-28T05:50:00;-2.10;99.90
2647;DHT22;1333;50.958;6.770;2023-02-28T05:52:27;-2.10;99.90
2647;DHT22;1333;50.958;6.770;2023-02-28T05:54:52;-2.10;99.90
2647;DHT22;1333;50.958;6.770;2023-02-28T05:57:18;-2.10;99.90
2647;DHT22;1333;50.958;6.770;2023-02-28T05:59:44;-2.10;99.90
2647;DHT22;1333;50.958;6.770;2023-02-28T06:02:12;-2.10;99.90
2647;DHT22;1333;50.958;6.770;2023-02-28T06:04:38;-2.10;99.90
2647;DHT22;1333;50.958;6.770;2023-02-28T06:07:03;-2.10;99.90
2647;DHT22;1333;50.958;6.770;2023-02-28T06:09:29;-2.10;99.90
2647;DHT22;1333;50.958;6.770;2023-02-28T06:11:58;-2.10;99.90
2647;DHT22;1333;50.958;6.770;2023-02-28T06:14:23;-2.10;99.90
2647;DHT22;1333;50.958;6.770;2023-02-28T06:16:49;-2.10;99.90
2647;DHT22;1333;50.958;6.770;2023-02-28T06:19:15;-2.20;99.90
2647;DHT22;1333;50.958;6.770;2023-02-28T06:21:40;-2.20;99.90
2647;DHT22;1333;50.958;6.770;2023-02-28T06:24:06;-2.20;99.90
2647;DHT22;1333;50.958;6.770;2023-02-28T06:26:32;-2.20;99.90
2647;DHT22;1333;50.958;6.770;2023-02-28T06:28:58;-2.20;99.90
2647;DHT22;1333;50.958;6.770;2023-02-28T06:31:23;-2.20;99.90
2647;DHT22;1333;50.958;6.770;2023-02-28T06:33:51;-2.10;99.90
2647;DHT22;1333;50.958;6.770;2023-02-28T06:36:17;-2.10;99.90
2647;DHT22;1333;50.958;6.770;2023-02-28T06:38:43;-2.10;99.90
2647;DHT22;1333;50.958;6.770;2023-02-28T06:41:10;-2.00;99.90
2647;DHT22;1333;50.958;6.770;2023-02-28T06:43:41;-2.00;99.90
2647;DHT22;1333;50.958;6.770;2023-02-28T06:46:08;-2.00;99.90
2647;DHT22;1333;50.958;6.770;2023-02-28T06:48:35;-1.90;99.90
2647;DHT22;1333;50.958;6.770;2023-02-28T06:51:06;-1.90;99.90
2647;DHT22;1333;50.958;6.770;2023-02-28T06:53:32;-1.80;99.90
2647;DHT22;1333;50.958;6.770;2023-02-28T06:55:58;-1.70;99.90
2647;DHT22;1333;50.958;6.770;2023-02-28T06:58:24;-1.70;99.90
2647;DHT22;1333;50.958;6.770;2023-02-28T07:00:53;-1.70;99.90
2647;DHT22;1333;50.958;6.770;2023-02-28T07:03:19;-1.60;99.90
2647;DHT22;1333;50.958;6.770;2023-02-28T07:05:45;-1.50;99.90
2647;DHT22;1333;50.958;6.770;2023-02-28T07:08:10;-1.40;99.90
2647;DHT22;1333;50.958;6.770;2023-02-28T07:10:40;-1.30;99.90
2647;DHT22;1333;50.958;6.770;2023-02-28T07:13:06;-1.10;99.90
2647;DHT22;1333;50.958;6.770;2023-02-28T07:15:32;-0.90;99.90
2647;DHT22;1333;50.958;6.770;2023-02-28T07:17:58;-0.90;99.90
2647;DHT22;1333;50.958;6.770;2023-02-28T07:20:24;-0.70;99.90
2647;DHT22;1333;50.958;6.770;2023-02-28T07:22:50;-0.60;99.90
2647;DHT22;1333;50.958;6.770;2023-02-28T07:25:23;-0.50;99.90
2647;DHT22;1333;50.958;6.770;2023-02-28T07:27:48;-0.20;99.90
2647;DHT22;1333;50.958;6.770;2023-02-28T07:30:14;-0.10;99.90
2647;DHT22;1333;50.958;6.770;2023-02-28T07:32:40;0.10;99.90
2647;DHT22;1333;50.958;6.770;2023-02-28T07:35:06;0.40;99.90
2647;DHT22;1333;50.958;6.770;2023-02-28T07:37:31;0.70;99.90
2647;DHT22;1333;50.958;6.770;2023-02-28T07:40:05;1.20;99.90
2647;DHT22;1333;50.958;6.770;2023-02-28T07:42:32;1.80;99.90
2647;DHT22;1333;50.958;6.770;2023-02-28T07:44:58;2.20;99.90
2647;DHT22;1333;50.958;6.770;2023-02-28T07:47:24;2.70;99.90
2647;DHT22;1333;50.958;6.770;2023-02-28T07:49:49;3.10;99.90
2647;DHT22;1333;50.958;6.770;2023-02-28T07:52:15;3.40;99.90
2647;DHT22;1333;50.958;6.770;2023-02-28T07:54:41;3.50;99.90
2647;DHT22;1333;50.958;6.770;2023-02-28T07:57:06;3.70;99.90
2647;DHT22;1333;50.958;6.770;2023-02-28T07:59:32;3.80;99.90
2647;DHT22;1333;50.958;6.770;2023-02-28T08:01:57;4.10;99.90
2647;DHT22;1333;50.958;6.770;2023-02-28T08:04:24;4.40;99.90
2647;DHT22;1333;50.958;6.770;2023-02-28T08:06:50;5.30;99.40
2647;DHT22;1333;50.958;6.770;2023-02-28T08:09:18;7.20;98.90
2647;DHT22;1333;50.958;6.770;2023-02-28T08:11:43;9.00;89.20
2647;DHT22;1333;50.958;6.770;2023-02-28T08:14:09;10.80;68.60
2647;DHT22;1333;50.958;6.770;2023-02-28T08:16:34;12.30;55.70
2647;DHT22;1333;50.958;6.770;2023-02-28T08:19:00;13.40;50.80
2647;DHT22;1333;50.958;6.770;2023-02-28T08:21:26;14.20;46.10
2647;DHT22;1333;50.958;6.770;2023-02-28T08:23:51;14.90;42.80
2647;DHT22;1333;50.958;6.770;2023-02-28T08:26:18;15.30;39.00
2647;DHT22;1333;50.958;6.770;2023-02-28T08:28:44;15.50;37.20
2647;DHT22;1333;50.958;6.770;2023-02-28T08:31:11;16.00;35.40
2647;DHT22;1333;50.958;6.770;2023-02-28T08:33:37;16.20;34.10
2647;DHT22;1333;50.958;6.770;2023-02-28T08:36:04;16.30;33.00
2647;DHT22;1333;50.958;6.770;2023-02-28T08:38:34;16.90;32.70
2647;DHT22;1333;50.958;6.770;2023-02-28T08:41:01;17.60;31.90
2647;DHT22;1333;50.958;6.770;2023-02-28T08:43:28;18.50;32.80
2647;DHT22;1333;50.958;6.770;2023-02-28T08:45:54;19.70;30.50
2647;DHT22;1333;50.958;6.770;2023-02-28T08:48:22;20.80;29.40
2647;DHT22;1333;50.958;6.770;2023-02-28T08:50:56;21.40;28.10
2647;DHT22;1333;50.958;6.770;2023-02-28T08:53:22;22.10;26.80
2647;DHT22;1333;50.958;6.770;2023-02-28T08:55:49;23.20;27.10
2647;DHT22;1333;50.958;6.770;2023-02-28T08:58:20;23.60;25.10
2647;DHT22;1333;50.958;6.770;2023-02-28T09:00:45;23.80;24.70
2647;DHT22;1333;50.958;6.770;2023-02-28T09:03:11;24.40;24.50
2647;DHT22;1333;50.958;6.770;2023-02-28T09:05:36;24.60;23.70
2647;DHT22;1333;50.958;6.770;2023-02-28T09:08:02;25.20;25.60
2647;DHT22;1333;50.958;6.770;2023-02-28T09:10:27;25.70;23.60
2647;DHT22;1333;50.958;6.770;2023-02-28T09:12:53;25.90;22.90
2647;DHT22;1333;50.958;6.770;2023-02-28T09:15:18;26.40;23.20
2647;DHT22;1333;50.958;6.770;2023-02-28T09:17:44;26.90;23.40
2647;DHT22;1333;50.958;6.770;2023-02-28T09:20:10;27.30;22.20
2647;DHT22;1333;50.958;6.770;2023-02-28T09:22:36;27.20;21.60
2647;DHT22;1333;50.958;6.770;2023-02-28T09:25:01;26.90;21.00
2647;DHT22;1333;50.958;6.770;2023-02-28T09:27:27;27.10;21.10
2647;DHT22;1333;50.958;6.770;2023-02-28T09:29:52;27.10;20.50
2647;DHT22;1333;50.958;6.770;2023-02-28T09:32:18;27.00;20.50
2647;DHT22;1333;50.958;6.770;2023-02-28T09:34:43;26.80;19.80
2647;DHT22;1333;50.958;6.770;2023-02-28T09:37:09;26.60;20.20
2647;DHT22;1333;50.958;6.770;2023-02-28T09:39:34;26.80;20.50
2647;DHT22;1333;50.958;6.770;2023-02-28T09:42:01;26.90;20.10
2647;DHT22;1333;50.958;6.770;2023-02-28T09:44:39;27.10;19.90
2647;DHT22;1333;50.958;6.770;2023-02-28T09:47:29;26.80;19.60
2647;DHT22;1333;50.958;6.770;2023-02-28T09:49:58;27.50;20.70
2647;DHT22;1333;50.958;6.770;2023-02-28T09:52:29;28.10;20.10
2647;DHT22;1333;50.958;6.770;2023-02-28T09:54:56;28.30;20.10
2647;DHT22;1333;50.958;6.770;2023-02-28T09:57:40;28.40;19.40
2647;DHT22;1333;50.958;6.770;2023-02-28T10:02:46;28.00;19.30
2647;DHT22;1333;50.958;6.770;2023-02-28T10:05:18;28.20;19.90
2647;DHT22;1333;50.958;6.770;2023-02-28T10:07:50;28.60;20.50
2647;DHT22;1333;50.958;6.770;2023-02-28T10:10:27;28.20;19.40
2647;DHT22;1333;50.958;6.770;2023-02-28T10:12:57;28.10;19.50
2647;DHT22;1333;50.958;6.770;2023-02-28T10:15:26;28.50;19.20
2647;DHT22;1333;50.958;6.770;2023-02-28T10:18:00;29.00;19.60
2647;DHT22;1333;50.958;6.770;2023-02-28T10:20:27;29.30;19.70
2647;DHT22;1333;50.958;6.770;2023-02-28T10:23:20;29.30;19.60
2647;DHT22;1333;50.958;6.770;2023-02-28T10:25:53;30.60;19.60
2647;DHT22;1333;50.958;6.770;2023-02-28T10:28:19;32.20;19.30
2647;DHT22;1333;50.958;6.770;2023-02-28T10:30:50;33.40;19.00
2647;DHT22;1333;50.958;6.770;2023-02-28T10:33:32;33.30;17.70
2647;DHT22;1333;50.958;6.770;2023-02-28T10:35:59;33.80;18.50
2647;DHT22;1333;50.958;6.770;2023-02-28T10:38:33;34.20;17.00
2647;DHT22;1333;50.958;6.770;2023-02-28T10:41:27;34.20;17.10
2647;DHT22;1333;50.958;6.770;2023-02-28T10:46:41;35.70;17.60
2647;DHT22;1333;50.958;6.770;2023-02-28T10:49:17;36.10;16.60
2647;DHT22;1333;50.958;6.770;2023-02-28T10:51:43;36.00;16.70
2647;DHT22;1333;50.958;6.770;2023-02-28T10:54:23;35.70;16.30
2647;DHT22;1333;50.958;6.770;2023-02-28T10:57:23;34.70;16.40
2647;DHT22;1333;50.958;6.770;2023-02-28T10:59:53;34.70;16.80
2647;DHT22;1333;50.958;6.770;2023-02-28T11:02:37;35.10;17.30
2647;DHT22;1333;50.958;6.770;2023-02-28T11:10:36;36.70;16.50
2647;DHT22;1333;50.958;6.770;2023-02-28T11:13:02;37.10;16.80
2647;DHT22;1333;50.958;6.770;2023-02-28T11:15:32;36.90;16.10
2647;DHT22;1333;50.958;6.770;2023-02-28T11:20:25;36.50;16.10
2647;DHT22;1333;50.958;6.770;2023-02-28T11:22:52;36.10;15.80
2647;DHT22;1333;50.958;6.770;2023-02-28T11:25:34;35.90;16.00
2647;DHT22;1333;50.958;6.770;2023-02-28T11:28:06;36.30;16.30
2647;DHT22;1333;50.958;6.770;2023-02-28T11:31:03;36.40;15.80
2647;DHT22;1333;50.958;6.770;2023-02-28T11:33:42;36.60;16.20
2647;DHT22;1333;50.958;6.770;2023-02-28T11:36:16;36.20;15.50
2647;DHT22;1333;50.958;6.770;2023-02-28T11:38:43;34.30;15.10
2647;DHT22;1333;50.958;6.770;2023-02-28T11:41:13;33.30;16.30
2647;DHT22;1333;50.958;6.770;2023-02-28T11:44:05;33.90;17.00
2647;DHT22;1333;50.958;6.770;2023-02-28T11:52:29;36.30;16.40
2647;DHT22;1333;50.958;6.770;2023-02-28T11:57:46;36.90;15.80
2647;DHT22;1333;50.958;6.770;2023-02-28T12:03:42;35.00;16.10
2647;DHT22;1333;50.958;6.770;2023-02-28T12:27:12;36.70;16.80
2647;DHT22;1333;50.958;6.770;2023-02-28T12:29:57;36.80;16.10
2647;DHT22;1333;50.958;6.770;2023-02-28T12:32:37;37.30;16.60
2647;DHT22;1333;50.958;6.770;2023-02-28T12:35:06;37.10;15.90
2647;DHT22;1333;50.958;6.770;2023-02-28T12:40:14;37.40;16.20
2647;DHT22;1333;50.958;6.770;2023-02-28T12:42:57;37.70;16.30
2647;DHT22;1333;50.958;6.770;2023-02-28T12:45:54;38.30;16.40
2647;DHT22;1333;50.958;6.770;2023-02-28T12:48:40;38.10;16.30
2647;DHT22;1333;50.958;6.770;2023-02-28T12:51:08;38.40;16.00
2647;DHT22;1333;50.958;6.770;2023-02-28T12:53:49;39.10;16.30
2647;DHT22;1333;50.958;6.770;2023-02-28T13:04:56;37.20;15.00
2647;DHT22;1333;50.958;6.770;2023-02-28T13:07:29;36.60;15.70
2647;DHT22;1333;50.958;6.770;2023-02-28T13:10:00;36.00;15.70
2647;DHT22;1333;50.958;6.770;2023-02-28T13:12:27;35.60;15.80
2647;DHT22;1333;50.958;6.770;2023-02-28T13:15:17;34.90;16.40
2647;DHT22;1333;50.958;6.770;2023-02-28T13:17:49;34.80;16.60
2647;DHT22;1333;50.958;6.770;2023-02-28T13:20:36;34.50;16.20
2647;DHT22;1333;50.958;6.770;2023-02-28T13:23:03;33.80;18.30
2647;DHT22;1333;50.958;6.770;2023-02-28T13:28:09;32.50;16.40
2647;DHT22;1333;50.958;6.770;2023-02-28T13:34:12;32.20;16.70
2647;DHT22;1333;50.958;6.770;2023-02-28T13:38:46;31.90;17.70
2647;DHT22;1333;50.958;6.770;2023-02-28T13:44:10;31.10;17.20
2647;DHT22;1333;50.958;6.770;2023-02-28T13:49:32;30.60;17.70
2647;DHT22;1333;50.958;6.770;2023-02-28T14:05:43;27.90;17.50
2647;DHT22;1333;50.958;6.770;2023-02-28T14:08:18;27.50;18.40
2647;DHT22;1333;50.958;6.770;2023-02-28T14:10:49;27.40;18.70
2647;DHT22;1333;50.958;6.770;2023-02-28T14:13:39;27.40;18.80
2647;DHT22;1333;50.958;6.770;2023-02-28T14:16:27;27.40;18.40
2647;DHT22;1333;50.958;6.770;2023-02-28T14:19:02;26.90;18.50
2647;DHT22;1333;50.958;6.770;2023-02-28T14:21:34;27.00;18.70
2647;DHT22;1333;50.958;6.770;2023-02-28T14:24:26;26.80;18.70
2647;DHT22;1333;50.958;6.770;2023-02-28T14:33:13;26.60;19.30
2647;DHT22;1333;50.958;6.770;2023-02-28T14:39:07;26.60;19.10
2647;DHT22;1333;50.958;6.770;2023-02-28T14:41:38;26.60;19.20
2647;DHT22;1333;50.958;6.770;2023-02-28T14:44:31;26.70;19.20
2647;DHT22;1333;50.958;6.770;2023-02-28T14:47:00;27.00;19.10
2647;DHT22;1333;50.958;6.770;2023-02-28T14:49:35;27.00;18.90
2647;DHT22;1333;50.958;6.770;2023-02-28T14:52:13;26.80;18.80
2647;DHT22;1333;50.958;6.770;2023-02-28T14:54:40;26.60;18.90
2647;DHT22;1333;50.958;6.770;2023-02-28T14:57:06;26.20;18.80
2647;DHT22;1333;50.958;6.770;2023-02-28T14:59:45;25.60;18.80
2647;DHT22;1333;50.958;6.770;2023-02-28T15:02:34;25.10;19.30
2647;DHT22;1333;50.958;6.770;2023-02-28T15:05:10;24.80;19.50
2647;DHT22;1333;50.958;6.770;2023-02-28T15:07:45;24.60;19.70
2647;DHT22;1333;50.958;6.770;2023-02-28T15:12:50;24.10;20.10
2647;DHT22;1333;50.958;6.770;2023-02-28T15:15:17;23.80;19.70
2647;DHT22;1333;50.958;6.770;2023-02-28T15:17:50;23.30;19.70
2647;DHT22;1333;50.958;6.770;2023-02-28T15:20:17;23.00;20.10
2647;DHT22;1333;50.958;6.770;2023-02-28T15:22:46;22.60;20.20
2647;DHT22;1333;50.958;6.770;2023-02-28T15:25:15;22.40;20.60
2647;DHT22;1333;50.958;6.770;2023-02-28T15:27:46;22.10;20.40
2647;DHT22;1333;50.958;6.770;2023-02-28T15:30:19;21.70;20.30
2647;DHT22;1333;50.958;6.770;2023-02-28T15:35:37;21.40;21.70
2647;DHT22;1333;50.958;6.770;2023-02-28T15:38:22;21.30;21.30
2647;DHT22;1333;50.958;6.770;2023-02-28T15:40:56;20.80;21.00
2647;DHT22;1333;50.958;6.770;2023-02-28T15:43:33;20.30;21.20
2647;DHT22;1333;50.958;6.770;2023-02-28T15:46:12;20.00;21.80
2647;DHT22;1333;50.958;6.770;2023-02-28T15:48:54;19.70;22.00
2647;DHT22;1333;50.958;6.770;2023-02-28T15:51:24;19.30;21.80
2647;DHT22;1333;50.958;6.770;2023-02-28T15:53:56;19.00;22.40
2647;DHT22;1333;50.958;6.770;2023-02-28T15:56:25;18.60;22.50
2647;DHT22;1333;50.958;6.770;2023-02-28T15:59:18;18.20;22.50
2647;DHT22;1333;50.958;6.770;2023-02-28T16:01:45;17.90;22.90
2647;DHT22;1333;50.958;6.770;2023-02-28T16:04:18;17.40;22.90
2647;DHT22;1333;50.958;6.770;2023-02-28T16:06:46;17.00;23.30
2647;DHT22;1333;50.958;6.770;2023-02-28T16:09:14;16.80;23.50
2647;DHT22;1333;50.958;6.770;2023-02-28T16:11:48;16.40;23.50
2647;DHT22;1333;50.958;6.770;2023-02-28T16:14:22;16.10;23.80
2647;DHT22;1333;50.958;6.770;2023-02-28T16:16:53;15.80;24.30
2647;DHT22;1333;50.958;6.770;2023-02-28T16:19:20;15.60;24.90
2647;DHT22;1333;50.958;6.770;2023-02-28T16:21:46;15.00;25.00
2647;DHT22;1333;50.958;6.770;2023-02-28T16:24:11;14.50;25.20
2647;DHT22;1333;50.958;6.770;2023-02-28T16:26:40;13.60;25.30
2647;DHT22;1333;50.958;6.770;2023-02-28T16:29:07;12.80;25.50
2647;DHT22;1333;50.958;6.770;2023-02-28T16:31:37;12.00;25.80
2647;DHT22;1333;50.958;6.770;2023-02-28T16:34:03;11.20;26.60
2647;DHT22;1333;50.958;6.770;2023-02-28T16:36:29;10.60;27.10
2647;DHT22;1333;50.958;6.770;2023-02-28T16:38:55;10.00;27.60
2647;DHT22;1333;50.958;6.770;2023-02-28T16:41:25;9.50;28.90
2647;DHT22;1333;50.958;6.770;2023-02-28T16:43:54;9.00;29.40
2647;DHT22;1333;50.958;6.770;2023-02-28T16:46:25;8.60;29.90
2647;DHT22;1333;50.958;6.770;2023-02-28T16:48:52;8.30;30.40
2647;DHT22;1333;50.958;6.770;2023-02-28T16:51:18;8.00;31.00
2647;DHT22;1333;50.958;6.770;2023-02-28T16:53:44;7.70;31.50
2647;DHT22;1333;50.958;6.770;2023-02-28T16:56:21;7.50;31.90
2647;DHT22;1333;50.958;6.770;2023-02-28T16:58:48;7.20;32.40
2647;DHT22;1333;50.958;6.770;2023-02-28T17:01:15;7.00;32.90
2647;DHT22;1333;50.958;6.770;2023-02-28T17:03:41;6.90;33.50
2647;DHT22;1333;50.958;6.770;2023-02-28T17:06:18;6.60;34.20
2647;DHT22;1333;50.958;6.770;2023-02-28T17:08:44;6.40;34.80
2647;DHT22;1333;50.958;6.770;2023-02-28T17:11:10;6.30;35.40
2647;DHT22;1333;50.958;6.770;2023-02-28T17:13:35;6.10;36.10
2647;DHT22;1333;50.958;6.770;2023-02-28T17:16:01;5.90;36.70
2647;DHT22;1333;50.958;6.770;2023-02-28T17:18:27;5.70;37.40
2647;DHT22;1333;50.958;6.770;2023-02-28T17:20:59;5.60;37.90
2647;DHT22;1333;50.958;6.770;2023-02-28T17:23:25;5.50;38.30
2647;DHT22;1333;50.958;6.770;2023-02-28T17:25:50;5.40;38.90
2647;DHT22;1333;50.958;6.770;2023-02-28T17:28:20;5.30;39.30
2647;DHT22;1333;50.958;6.770;2023-02-28T17:30:46;5.20;40.10
2647;DHT22;1333;50.958;6.770;2023-02-28T17:33:14;5.00;40.00
2647;DHT22;1333;50.958;6.770;2023-02-28T17:35:39;5.00;40.40
2647;DHT22;1333;50.958;6.770;2023-02-28T17:38:05;4.80;40.60
2647;DHT22;1333;50.958;6.770;2023-02-28T17:40:33;4.70;41.30
2647;DHT22;1333;50.958;6.770;2023-02-28T17:42:59;4.60;41.90
2647;DHT22;1333;50.958;6.770;2023-02-28T17:45:24;4.50;42.60
2647;DHT22;1333;50.958;6.770;2023-02-28T17:47:50;4.30;43.70
2647;DHT22;1333;50.958;6.770;2023-02-28T17:50:20;4.30;44.60
2647;DHT22;1333;50.958;6.770;2023-02-28T17:52:46;4.20;45.90
2647;DHT22;1333;50.958;6.770;2023-02-28T17:55:13;4.10;47.20
2647;DHT22;1333;50.958;6.770;2023-02-28T17:57:39;4.00;48.50
2647;DHT22;1333;50.958;6.770;2023-02-28T18:00:07;4.00;49.90
2647;DHT22;1333;50.958;6.770;2023-02-28T18:02:33;4.00;50.90
2647;DHT22;1333;50.958;6.770;2023-02-28T18:04:59;3.90;51.80
2647;DHT22;1333;50.958;6.770;2023-02-28T18:07:24;3.90;52.50
2647;DHT22;1333;50.958;6.770;2023-02-28T18:09:50;3.80;53.40
2647;DHT22;1333;50.958;6.770;2023-02-28T18:12:16;3.70;55.30
2647;DHT22;1333;50.958;6.770;2023-02-28T18:14:41;3.60;57.90
2647;DHT22;1333;50.958;6.770;2023-02-28T18:17:09;3.60;59.20
2647;DHT22;1333;50.958;6.770;2023-02-28T18:19:37;3.50;63.30
2647;DHT22;1333;50.958;6.770;2023-02-28T18:22:03;3.50;65.20
2647;DHT22;1333;50.958;6.770;2023-02-28T18:24:29;3.50;65.90
2647;DHT22;1333;50.958;6.770;2023-02-28T18:26:55;3.40;68.20
2647;DHT22;1333;50.958;6.770;2023-02-28T18:29:23;3.30;72.50
2647;DHT22;1333;50.958;6.770;2023-02-28T18:31:49;3.30;74.10